Time;durP1;ratioP1;P1;durP2;ratioP2;P2;SDS_P1;SDS_P2;PMS_P1;PMS_P2;Temp;Humidity;BMP_temperature;BMP_pressure;BME280_temperature;BME280_humidity;BME280_pressure;Samples;Min_cycle;Max_cycle;Signal;HPM_P1;HPM_P2
2022/03/21 00:00:56;;;;;;;42.72;21.02;;;-1.20;52.10;;;;;;5116446;27;20484;-77
2022/03/21 00:03:24;;;;;;;34.88;21.15;;;-1.20;52.20;;;;;;5135043;27;20114;-77
2022/03/21 00:05:50;;;;;;;34.72;19.52;;;-1.30;52.50;;;;;;5134947;27;20027;-77
2022/03/21 00:08:17;;;;;;;38.17;20.48;;;-1.30;52.70;;;;;;5134733;27;20030;-77
2022/03/21 00:10:47;;;;;;;43.15;19.30;;;-1.30;53.00;;;;;;5134797;27;20023;-77
2022/03/21 00:13:15;;;;;;;40.63;19.58;;;-1.40;52.90;;;;;;5116378;27;20034;-77
2022/03/21 00:15:45;;;;;;;42.30;19.67;;;-1.40;53.00;;;;;;5116360;27;20556;-77
2022/03/21 00:18:13;;;;;;;36.17;17.80;;;-1.40;53.00;;;;;;5134413;27;20038;-78
2022/03/21 00:20:40;;;;;;;42.90;20.40;;;-1.40;53.10;;;;;;5134595;27;20031;-77
2022/03/21 00:23:06;;;;;;;43.92;19.50;;;-1.50;53.10;;;;;;5116031;27;20519;-77
2022/03/21 00:25:32;;;;;;;40.72;18.90;;;-1.60;53.30;;;;;;5116218;27;20023;-77
2022/03/21 00:27:58;;;;;;;39.67;20.23;;;-1.60;53.50;;;;;;5134251;27;20019;-77
2022/03/21 00:30:25;;;;;;;43.72;19.77;;;-1.70;53.70;;;;;;5116198;27;20110;-77
2022/03/21 00:32:51;;;;;;;36.05;18.63;;;-1.70;53.40;;;;;;5134162;27;20046;-77
2022/03/21 00:35:17;;;;;;;38.10;19.33;;;-1.70;53.30;;;;;;5116078;27;20038;-77
2022/03/21 00:37:44;;;;;;;39.83;18.40;;;-1.80;53.10;;;;;;5134182;27;20019;-77
2022/03/21 00:40:11;;;;;;;33.95;18.45;;;-1.70;53.60;;;;;;5115682;27;20485;-78
2022/03/21 00:42:38;;;;;;;39.85;18.35;;;-1.80;53.90;;;;;;5134415;27;20034;-78
2022/03/21 00:45:09;;;;;;;32.00;18.92;;;-1.80;54.00;;;;;;5134229;27;20022;-77
2022/03/21 00:47:35;;;;;;;36.03;19.52;;;-1.80;54.00;;;;;;5134125;27;20067;-78
2022/03/21 00:50:00;;;;;;;43.53;19.17;;;-1.90;54.60;;;;;;5134258;27;20098;-78
2022/03/21 00:52:26;;;;;;;32.35;19.13;;;-1.90;54.80;;;;;;5115763;27;20160;-77
2022/03/21 00:54:51;;;;;;;38.10;18.80;;;-1.90;54.70;;;;;;5115674;27;20023;-77
2022/03/21 00:57:17;;;;;;;30.88;19.48;;;-1.90;54.60;;;;;;5133995;27;20026;-77
2022/03/21 00:59:43;;;;;;;36.72;19.92;;;-2.00;54.60;;;;;;5115602;28;20197;-78
2022/03/21 01:02:08;;;;;;;38.28;18.10;;;-2.00;54.70;;;;;;5134004;27;20016;-77
2022/03/21 01:04:35;;;;;;;36.35;17.55;;;-2.00;54.80;;;;;;5115842;28;20021;-78
2022/03/21 01:07:01;;;;;;;38.08;18.27;;;-2.00;54.90;;;;;;5115599;28;20015;-77
2022/03/21 01:09:27;;;;;;;40.03;20.30;;;-2.10;55.00;;;;;;5138980;27;20023;-77
2022/03/21 01:11:53;;;;;;;33.88;19.27;;;-2.10;55.50;;;;;;5122350;27;20037;-77
2022/03/21 01:14:18;;;;;;;34.30;20.27;;;-2.20;55.90;;;;;;5140955;27;20019;-78
2022/03/21 01:16:44;;;;;;;38.95;18.90;;;-2.30;56.30;;;;;;5122343;27;20019;-77
2022/03/21 01:19:09;;;;;;;39.80;20.83;;;-2.30;57.00;;;;;;5122150;27;20011;-77
2022/03/21 01:21:35;;;;;;;36.78;17.63;;;-2.30;57.40;;;;;;5140756;27;20397;-77
2022/03/21 01:24:01;;;;;;;40.75;19.42;;;-2.40;57.10;;;;;;5122318;27;20012;-78
2022/03/21 01:26:27;;;;;;;38.42;20.85;;;-2.40;57.20;;;;;;5122237;27;20019;-77
2022/03/21 01:28:52;;;;;;;45.20;21.85;;;-2.60;58.60;;;;;;5140471;27;20023;-77
2022/03/21 01:31:18;;;;;;;50.00;26.10;;;-2.70;59.30;;;;;;5140654;27;20038;-77
2022/03/21 01:33:43;;;;;;;44.30;23.17;;;-2.80;59.60;;;;;;5110977;28;20051;-77
2022/03/21 01:36:09;;;;;;;54.90;22.90;;;-2.80;59.50;;;;;;5119972;27;20031;-77
2022/03/21 01:38:35;;;;;;;49.53;24.20;;;-2.80;59.40;;;;;;5101596;28;20015;-77
2022/03/21 01:41:01;;;;;;;46.95;23.40;;;-2.90;59.60;;;;;;5119784;28;20068;-77
2022/03/21 01:43:26;;;;;;;46.15;21.23;;;-2.90;59.70;;;;;;5101701;28;20122;-77
2022/03/21 01:45:52;;;;;;;41.70;21.10;;;-3.00;59.40;;;;;;5101609;28;20484;-77
2022/03/21 01:48:18;;;;;;;42.47;20.50;;;-3.10;59.40;;;;;;5101446;28;20015;-77
2022/03/21 01:50:44;;;;;;;39.30;17.90;;;-3.20;59.20;;;;;;5101586;28;20485;-77
2022/03/21 01:55:56;;;;;;;39.73;19.80;;;-3.30;59.00;;;;;;5120215;28;20034;-77
2022/03/21 01:58:22;;;;;;;43.83;21.33;;;-3.30;58.90;;;;;;5119710;28;20062;-77
2022/03/21 02:00:48;;;;;;;42.30;22.23;;;-3.40;60.00;;;;;;5119622;28;20032;-78
2022/03/21 02:03:14;;;;;;;47.53;22.53;;;-3.40;60.10;;;;;;5119811;27;20092;-77
2022/03/21 02:05:40;;;;;;;63.83;29.17;;;-3.50;60.60;;;;;;5119750;28;20107;-77
2022/03/21 02:08:05;;;;;;;128.93;59.20;;;-3.50;60.80;;;;;;5119554;28;20028;-77
2022/03/21 02:10:31;;;;;;;166.47;71.67;;;-3.60;60.50;;;;;;5119228;28;20465;-77
2022/03/21 02:12:57;;;;;;;139.83;59.77;;;-3.60;60.40;;;;;;5119602;27;20056;-76
2022/03/21 02:15:23;;;;;;;73.57;32.15;;;-3.70;60.20;;;;;;5101259;28;20016;-77
2022/03/21 02:17:58;;;;;;;70.27;32.77;;;-3.60;60.20;;;;;;5101215;28;20473;-77
2022/03/21 02:20:25;;;;;;;60.87;28.33;;;-3.60;60.10;;;;;;5117425;28;20084;-77
2022/03/21 02:23:27;;;;;;;51.30;23.43;;;-3.60;60.10;;;;;;5116378;28;20473;-77
2022/03/21 02:25:55;;;;;;;40.85;21.08;;;-3.60;60.20;;;;;;5098073;28;20058;-77
2022/03/21 02:28:23;;;;;;;40.47;20.67;;;-3.70;60.30;;;;;;5116304;28;20047;-77
2022/03/21 02:30:49;;;;;;;60.97;29.07;;;-3.60;59.90;;;;;;5097467;28;20016;-77
2022/03/21 02:33:18;;;;;;;52.10;26.37;;;-3.90;61.20;;;;;;5123047;27;20054;-77
2022/03/21 02:35:46;;;;;;;56.00;24.23;;;-4.00;62.70;;;;;;5118304;27;20019;-77
2022/03/21 02:38:13;;;;;;;50.40;23.77;;;-4.00;63.60;;;;;;5118195;27;20011;-76
2022/03/21 02:40:40;;;;;;;62.37;30.73;;;-4.10;64.20;;;;;;5136396;27;20035;-77
2022/03/21 02:43:05;;;;;;;67.87;30.87;;;-4.10;64.80;;;;;;5136458;27;20080;-77
2022/03/21 02:45:31;;;;;;;51.37;25.60;;;-4.20;64.90;;;;;;5118214;27;20473;-77
2022/03/21 02:47:57;;;;;;;50.40;23.30;;;-4.20;64.40;;;;;;5118216;27;20027;-76
2022/03/21 02:50:39;;;;;;;52.87;22.37;;;-4.10;63.90;;;;;;5117855;27;20102;-77
2022/03/21 02:53:06;;;;;;;38.97;21.52;;;-4.20;63.00;;;;;;5117919;27;20110;-77
2022/03/21 02:55:32;;;;;;;40.83;20.30;;;-4.10;62.50;;;;;;5117948;27;20473;-77
2022/03/21 02:57:58;;;;;;;36.50;18.67;;;-4.10;62.60;;;;;;5117909;27;20152;-77
2022/03/21 03:00:23;;;;;;;36.57;18.50;;;-4.10;62.60;;;;;;5135998;27;20114;-78
2022/03/21 03:02:49;;;;;;;36.77;19.20;;;-4.10;62.50;;;;;;5117665;27;20015;-77
2022/03/21 03:05:14;;;;;;;37.30;19.03;;;-3.90;62.30;;;;;;5117791;27;20483;-77
2022/03/21 03:07:40;;;;;;;69.33;29.37;;;-3.90;61.80;;;;;;5136181;27;20484;-77
2022/03/21 03:10:06;;;;;;;42.20;21.57;;;-3.80;61.20;;;;;;5117447;27;20028;-77
2022/03/21 03:12:32;;;;;;;45.57;22.63;;;-3.70;60.50;;;;;;5135949;27;20031;-77
2022/03/21 03:14:57;;;;;;;50.40;23.23;;;-3.60;59.90;;;;;;5117430;27;20044;-77
2022/03/21 03:17:23;;;;;;;44.57;20.30;;;-3.60;60.00;;;;;;5117565;27;20072;-77
2022/03/21 03:19:48;;;;;;;39.17;19.43;;;-3.40;59.70;;;;;;5117156;27;20050;-77
2022/03/21 03:22:17;;;;;;;45.10;21.60;;;-3.40;59.70;;;;;;5117382;27;20015;-77
2022/03/21 03:24:44;;;;;;;47.73;24.50;;;-3.30;58.90;;;;;;5117419;27;20473;-77
2022/03/21 03:27:10;;;;;;;65.15;30.40;;;-3.30;58.70;;;;;;5117178;27;20027;-77
2022/03/21 03:29:35;;;;;;;62.77;29.13;;;-3.20;58.70;;;;;;5117268;27;20019;-77
2022/03/21 03:32:03;;;;;;;48.10;25.40;;;-3.30;59.80;;;;;;5116466;27;20380;-76
2022/03/21 03:34:33;;;;;;;49.03;23.52;;;-3.40;61.10;;;;;;5117249;27;20050;-77
2022/03/21 03:36:59;;;;;;;46.53;22.13;;;-3.40;61.50;;;;;;5117011;27;20071;-77
2022/03/21 03:39:25;;;;;;;51.67;25.47;;;-3.40;60.70;;;;;;5135441;27;20106;-77
2022/03/21 03:41:51;;;;;;;49.50;25.73;;;-3.40;60.40;;;;;;5116611;27;20031;-77
2022/03/21 03:44:17;;;;;;;49.72;23.40;;;-3.40;59.70;;;;;;5135481;27;20034;-77
2022/03/21 03:46:46;;;;;;;41.60;20.50;;;-3.40;59.60;;;;;;5116922;27;20107;-77
2022/03/21 03:49:12;;;;;;;34.42;18.92;;;-3.40;59.80;;;;;;5116879;27;20038;-77
2022/03/21 03:51:37;;;;;;;31.07;17.37;;;-3.40;59.90;;;;;;5134949;27;20031;-77
2022/03/21 03:54:03;;;;;;;33.10;17.08;;;-3.40;60.00;;;;;;5135195;27;20495;-77
2022/03/21 03:56:29;;;;;;;34.50;19.17;;;-3.30;59.90;;;;;;5116645;27;20066;-77
2022/03/21 03:58:55;;;;;;;33.60;18.00;;;-3.30;59.60;;;;;;5116629;27;20027;-77
2022/03/21 04:01:20;;;;;;;34.63;17.98;;;-3.30;59.30;;;;;;5116348;27;20068;-77
2022/03/21 04:03:46;;;;;;;36.70;18.85;;;-3.30;59.30;;;;;;5116704;27;20480;-77
2022/03/21 04:06:13;;;;;;;36.83;18.97;;;-3.40;59.20;;;;;;5134883;27;20027;-77
2022/03/21 04:08:39;;;;;;;39.50;19.52;;;-3.30;59.50;;;;;;5116521;27;20019;-77
2022/03/21 04:11:05;;;;;;;35.60;18.70;;;-3.40;59.30;;;;;;5115992;27;20019;-77
2022/03/21 04:13:31;;;;;;;35.33;17.93;;;-3.40;59.50;;;;;;5134864;27;20023;-76
2022/03/21 04:15:57;;;;;;;37.60;18.83;;;-3.40;60.00;;;;;;5116445;27;20025;-77
2022/03/21 04:18:23;;;;;;;37.03;19.00;;;-3.50;60.20;;;;;;5116429;27;20023;-77
2022/03/21 04:20:50;;;;;;;34.80;19.43;;;-3.50;60.20;;;;;;5134206;27;20035;-77
2022/03/21 04:23:17;;;;;;;38.03;19.85;;;-3.60;60.40;;;;;;5134669;27;20487;-77
2022/03/21 04:25:43;;;;;;;37.13;20.77;;;-3.60;60.50;;;;;;5116246;27;20011;-77
2022/03/21 04:28:14;;;;;;;42.83;21.33;;;-3.60;60.60;;;;;;5134470;27;20072;-77
2022/03/21 04:30:40;;;;;;;41.17;21.47;;;-3.60;60.60;;;;;;5116198;27;20038;-77
2022/03/21 04:33:06;;;;;;;40.57;20.53;;;-3.70;60.70;;;;;;5115508;27;20142;-77
2022/03/21 04:35:31;;;;;;;52.03;23.57;;;-3.70;60.60;;;;;;5116138;27;20061;-77
2022/03/21 04:37:57;;;;;;;39.87;20.70;;;-3.70;60.60;;;;;;5134418;27;20035;-77
2022/03/21 04:40:24;;;;;;;48.80;24.07;;;-3.80;60.60;;;;;;5134351;27;20063;-76
2022/03/21 04:42:50;;;;;;;39.37;21.63;;;-3.80;60.40;;;;;;5133351;27;20023;-77
2022/03/21 04:45:16;;;;;;;39.17;21.73;;;-3.80;60.50;;;;;;5115701;27;20056;-77
2022/03/21 04:47:43;;;;;;;41.60;21.17;;;-3.80;60.60;;;;;;5134402;27;20113;-77
2022/03/21 04:50:09;;;;;;;39.53;19.87;;;-3.80;60.80;;;;;;5134426;27;20020;-78
2022/03/21 04:52:35;;;;;;;38.20;21.07;;;-3.90;61.50;;;;;;5115590;27;20064;-76
2022/03/21 04:55:01;;;;;;;44.50;23.57;;;-3.80;61.70;;;;;;5134101;27;20031;-77
2022/03/21 04:57:27;;;;;;;38.67;21.50;;;-3.80;61.70;;;;;;5134214;27;20126;-76
2022/03/21 04:59:54;;;;;;;33.93;19.73;;;-3.90;61.70;;;;;;5115654;27;20027;-77
2022/03/21 05:02:20;;;;;;;32.20;19.27;;;-3.90;61.60;;;;;;5115574;28;20026;-77
2022/03/21 05:04:46;;;;;;;45.77;20.67;;;-3.90;61.80;;;;;;5133661;27;20019;-77
2022/03/21 05:07:13;;;;;;;34.03;18.67;;;-3.90;62.10;;;;;;5115524;28;20042;-76
2022/03/21 05:09:41;;;;;;;42.87;21.73;;;-3.70;62.20;;;;;;5134031;28;20023;-77
2022/03/21 05:12:08;;;;;;;38.10;19.43;;;-3.70;61.90;;;;;;5133777;27;20023;-77
2022/03/21 05:14:34;;;;;;;39.20;22.00;;;-3.60;61.70;;;;;;5115603;28;20017;-77
2022/03/21 05:17:02;;;;;;;40.57;20.53;;;-3.50;61.00;;;;;;5133887;27;20023;-77
2022/03/21 05:19:36;;;;;;;41.40;19.35;;;-3.50;60.70;;;;;;5133963;28;20016;-76
2022/03/21 05:22:06;;;;;;;43.10;21.00;;;-3.40;60.90;;;;;;5133570;27;20488;-77
2022/03/21 05:32:44;;;;;;;41.50;18.92;;;-2.30;59.20;;;;;;5133735;27;20034;-77
2022/03/21 05:37:54;;;;;;;33.42;18.65;;;-2.00;58.60;;;;;;5134070;27;20069;-78
2022/03/21 05:40:31;;;;;;;38.42;21.50;;;-1.70;57.70;;;;;;5115271;28;20062;-78
2022/03/21 05:42:57;;;;;;;30.63;18.13;;;-1.60;57.50;;;;;;5133406;27;20023;-77
2022/03/21 05:45:23;;;;;;;34.80;19.75;;;-1.40;56.90;;;;;;5115315;28;20056;-77
2022/03/21 05:50:37;;;;;;;33.08;18.17;;;-1.00;55.40;;;;;;5134036;28;20392;-78
2022/03/21 05:53:03;;;;;;;34.88;18.95;;;-0.80;55.50;;;;;;5114767;28;20052;-77
2022/03/21 05:55:30;;;;;;;34.50;20.27;;;-0.60;55.30;;;;;;5117633;27;20023;-78
2022/03/21 05:57:59;;;;;;;37.88;19.27;;;-0.40;55.00;;;;;;5119046;27;20076;-77
2022/03/21 06:00:25;;;;;;;34.38;18.77;;;-0.30;54.70;;;;;;5118845;27;20068;-77
2022/03/21 06:02:51;;;;;;;34.53;19.58;;;-0.10;54.50;;;;;;5137071;27;20016;-77
2022/03/21 06:05:21;;;;;;;29.30;18.60;;;0.00;54.30;;;;;;5118733;27;20472;-77
2022/03/21 06:07:47;;;;;;;38.00;20.05;;;0.20;53.90;;;;;;5137361;27;20077;-77
2022/03/21 06:10:13;;;;;;;40.47;19.50;;;0.40;53.30;;;;;;5118830;27;20019;-78
2022/03/21 06:12:40;;;;;;;37.65;19.60;;;0.50;52.60;;;;;;5136997;27;20496;-77
2022/03/21 06:15:07;;;;;;;39.30;19.77;;;0.70;52.00;;;;;;5118670;27;20164;-79
2022/03/21 06:17:40;;;;;;;35.00;19.33;;;0.90;51.70;;;;;;5118551;27;20035;-80
2022/03/21 06:20:12;;;;;;;37.40;21.75;;;1.10;51.90;;;;;;5099387;28;20042;-78
2022/03/21 06:22:38;;;;;;;39.53;20.40;;;1.20;51.20;;;;;;5115422;28;20016;-78
2022/03/21 06:25:04;;;;;;;35.08;20.88;;;1.40;51.10;;;;;;5113485;28;20045;-78
2022/03/21 06:27:31;;;;;;;37.72;20.23;;;1.50;50.80;;;;;;5096903;28;20076;-75
2022/03/21 06:29:56;;;;;;;38.42;21.92;;;1.60;50.70;;;;;;5114878;28;20034;-76
2022/03/21 06:32:22;;;;;;;44.15;21.38;;;1.80;50.20;;;;;;5114869;28;20110;-75
2022/03/21 06:34:48;;;;;;;44.45;21.45;;;2.00;50.20;;;;;;5095920;28;20040;-75
2022/03/21 06:37:13;;;;;;;43.95;23.30;;;2.10;49.70;;;;;;5114206;28;20011;-75
2022/03/21 06:39:39;;;;;;;46.50;23.77;;;2.20;49.40;;;;;;5096981;28;20393;-79
2022/03/21 06:42:05;;;;;;;36.40;22.27;;;2.40;49.50;;;;;;5096655;28;20031;-78
2022/03/21 06:44:31;;;;;;;34.08;20.50;;;2.60;49.20;;;;;;5096493;28;20416;-78
2022/03/21 06:46:58;;;;;;;39.85;20.88;;;2.70;48.90;;;;;;5096570;28;20038;-77
2022/03/21 06:49:29;;;;;;;32.38;18.98;;;2.90;48.90;;;;;;5113233;28;20066;-76
2022/03/21 06:51:56;;;;;;;34.45;19.55;;;3.10;48.70;;;;;;5114563;28;20016;-77
2022/03/21 06:54:21;;;;;;;35.65;19.70;;;3.20;47.90;;;;;;5117092;27;20072;-77
2022/03/21 06:56:47;;;;;;;34.92;18.48;;;3.30;47.50;;;;;;5134214;27;20030;-76
2022/03/21 06:59:13;;;;;;;38.83;18.33;;;3.50;47.30;;;;;;5135855;27;20034;-77
2022/03/21 07:01:38;;;;;;;34.22;17.25;;;3.60;46.80;;;;;;5128976;27;20027;-76
2022/03/21 07:04:05;;;;;;;36.58;18.55;;;3.80;46.60;;;;;;5112732;28;20027;-78
2022/03/21 07:06:30;;;;;;;32.13;17.98;;;3.80;46.30;;;;;;5093618;28;20012;-76
2022/03/21 07:08:56;;;;;;;28.63;15.73;;;4.00;46.30;;;;;;5094575;28;20012;-78
2022/03/21 07:11:22;;;;;;;33.90;18.02;;;4.20;46.10;;;;;;5094485;28;20027;-76
2022/03/21 07:13:48;;;;;;;28.77;17.60;;;4.40;45.60;;;;;;5112625;28;20497;-77
2022/03/21 07:16:16;;;;;;;29.38;16.30;;;4.50;45.50;;;;;;5114445;28;20026;-76
2022/03/21 07:18:45;;;;;;;28.60;15.60;;;4.70;45.20;;;;;;5114831;28;20035;-77
2022/03/21 07:21:15;;;;;;;23.48;13.82;;;4.90;44.80;;;;;;5096364;28;20058;-78
2022/03/21 07:23:41;;;;;;;26.10;14.60;;;5.00;44.00;;;;;;5096348;28;20038;-77
2022/03/21 07:26:06;;;;;;;23.83;13.43;;;5.20;44.00;;;;;;5113389;28;20489;-77
2022/03/21 07:28:32;;;;;;;26.50;14.20;;;5.40;43.40;;;;;;5096261;28;20069;-77
2022/03/21 07:30:57;;;;;;;25.42;13.40;;;5.50;43.00;;;;;;5096276;28;20020;-77
2022/03/21 07:33:24;;;;;;;20.95;11.88;;;5.70;42.80;;;;;;5096089;28;20120;-77
2022/03/21 07:35:50;;;;;;;22.52;11.98;;;5.80;42.10;;;;;;5095991;28;20050;-77
2022/03/21 07:38:18;;;;;;;22.48;11.57;;;6.00;41.70;;;;;;5114351;28;20047;-77
2022/03/21 07:40:46;;;;;;;19.00;12.32;;;6.00;41.20;;;;;;5114170;28;20065;-77
2022/03/21 07:43:13;;;;;;;19.65;12.20;;;6.30;41.10;;;;;;5114253;28;20020;-77
2022/03/21 07:48:26;;;;;;;15.77;10.50;;;6.50;39.50;;;;;;5113205;28;20039;-77
2022/03/21 07:50:52;;;;;;;16.20;9.45;;;6.50;39.00;;;;;;5095640;28;20020;-77
2022/03/21 07:53:18;;;;;;;16.33;10.23;;;6.60;38.80;;;;;;5114087;28;20027;-77
2022/03/21 07:55:44;;;;;;;14.38;9.85;;;6.60;38.40;;;;;;5113703;28;20024;-77
2022/03/21 07:58:09;;;;;;;16.05;9.38;;;6.60;38.10;;;;;;5114092;28;20067;-78
2022/03/21 08:00:35;;;;;;;12.50;8.82;;;6.70;38.20;;;;;;5130145;27;20035;-76
2022/03/21 08:03:01;;;;;;;17.25;9.48;;;6.80;38.00;;;;;;5114581;28;20028;-76
2022/03/21 08:05:30;;;;;;;13.45;9.05;;;6.80;37.60;;;;;;5130203;27;20066;-79
2022/03/21 08:07:56;;;;;;;15.77;9.55;;;6.90;37.50;;;;;;5114509;28;20110;-76
2022/03/21 08:10:24;;;;;;;14.27;8.27;;;7.00;37.40;;;;;;5114386;28;20038;-76
2022/03/21 08:12:49;;;;;;;13.13;8.15;;;7.00;37.20;;;;;;5114179;28;20016;-78
2022/03/21 08:15:17;;;;;;;15.55;8.60;;;6.90;37.10;;;;;;5129885;27;20068;-78
2022/03/21 08:17:57;;;;;;;11.85;8.05;;;7.00;37.10;;;;;;5130159;27;20019;-78
2022/03/21 08:20:25;;;;;;;15.13;9.05;;;7.10;37.30;;;;;;5095863;28;20059;-78
2022/03/21 08:22:52;;;;;;;13.43;9.15;;;7.20;37.30;;;;;;5095741;28;20076;-77
2022/03/21 08:25:20;;;;;;;14.32;8.98;;;7.30;37.20;;;;;;5095455;28;20530;-76
2022/03/21 08:27:46;;;;;;;16.65;9.32;;;7.30;37.00;;;;;;5095401;28;20023;-77
2022/03/21 08:30:15;;;;;;;11.77;7.80;;;7.40;37.60;;;;;;5095792;28;20541;-77
2022/03/21 08:32:42;;;;;;;13.15;8.75;;;7.50;37.10;;;;;;5113840;28;20027;-77
2022/03/21 08:35:08;;;;;;;13.55;9.07;;;7.60;37.00;;;;;;5113776;28;20168;-78
2022/03/21 08:37:33;;;;;;;9.65;8.18;;;7.80;36.80;;;;;;5095639;28;20007;-78
2022/03/21 08:39:59;;;;;;;12.13;8.90;;;7.90;36.60;;;;;;5112720;28;20060;-77
2022/03/21 08:42:24;;;;;;;13.23;8.98;;;8.00;36.50;;;;;;5113969;28;20569;-77
2022/03/21 08:44:50;;;;;;;11.95;7.63;;;8.20;36.50;;;;;;5113737;28;20027;-78
2022/03/21 08:47:16;;;;;;;11.65;8.02;;;8.30;36.20;;;;;;5113620;28;20069;-77
2022/03/21 08:49:42;;;;;;;11.80;7.53;;;8.20;35.90;;;;;;5096859;28;20011;-77
2022/03/21 08:52:07;;;;;;;16.83;8.40;;;8.30;36.00;;;;;;5095435;28;20030;-77
2022/03/21 08:54:33;;;;;;;11.30;7.93;;;8.30;36.00;;;;;;5095137;28;20015;-78
2022/03/21 08:56:59;;;;;;;11.13;7.82;;;8.50;36.20;;;;;;5094658;28;20016;-78
2022/03/21 08:59:25;;;;;;;9.73;6.63;;;8.60;36.00;;;;;;5095113;28;20374;-77
2022/03/21 09:01:51;;;;;;;13.82;8.98;;;8.60;35.70;;;;;;5112732;28;20034;-77
2022/03/21 09:04:17;;;;;;;9.02;6.78;;;8.40;35.60;;;;;;5116670;28;20031;-78
2022/03/21 09:06:43;;;;;;;13.18;6.97;;;8.50;35.60;;;;;;5133210;27;20042;-78
2022/03/21 09:09:09;;;;;;;10.98;7.00;;;8.50;35.60;;;;;;5113676;28;20015;-78
2022/03/21 09:11:35;;;;;;;10.75;5.88;;;8.50;35.50;;;;;;5115152;28;20019;-77
2022/03/21 09:14:02;;;;;;;9.38;6.78;;;8.50;35.40;;;;;;5133722;28;20023;-78
2022/03/21 09:16:27;;;;;;;11.07;7.03;;;8.60;35.10;;;;;;5115100;27;20031;-78
2022/03/21 09:18:53;;;;;;;9.15;6.47;;;8.60;35.10;;;;;;5115295;28;20400;-78
2022/03/21 09:21:18;;;;;;;10.00;6.65;;;8.60;34.80;;;;;;5132499;27;20031;-77
2022/03/21 09:23:44;;;;;;;12.70;6.45;;;8.70;34.80;;;;;;5130674;28;20179;-78
2022/03/21 09:26:12;;;;;;;10.05;6.20;;;8.70;34.80;;;;;;5131696;27;20019;-78
2022/03/21 09:28:45;;;;;;;10.68;6.85;;;8.80;34.40;;;;;;5113365;27;20023;-78
2022/03/21 09:31:13;;;;;;;10.13;7.47;;;8.70;34.40;;;;;;5134371;27;20031;-78
2022/03/21 09:33:39;;;;;;;9.43;6.45;;;8.80;34.50;;;;;;5118149;27;20070;-78
2022/03/21 09:36:04;;;;;;;8.93;6.18;;;9.00;34.70;;;;;;5118411;27;20007;-78
2022/03/21 09:38:31;;;;;;;10.50;7.53;;;9.10;34.80;;;;;;5119520;27;20027;-78
2022/03/21 09:40:57;;;;;;;11.18;6.63;;;9.20;34.50;;;;;;5137787;27;20027;-78
2022/03/21 09:43:24;;;;;;;12.38;7.43;;;9.20;34.30;;;;;;5119473;27;20027;-78
2022/03/21 09:45:51;;;;;;;11.73;6.70;;;9.20;34.10;;;;;;5137864;27;20027;-78
2022/03/21 09:48:19;;;;;;;9.70;7.00;;;9.30;33.90;;;;;;5118403;27;20052;-78
2022/03/21 09:50:46;;;;;;;8.63;6.65;;;9.20;33.50;;;;;;5137682;27;20068;-78
2022/03/21 09:53:16;;;;;;;8.90;6.57;;;9.30;34.00;;;;;;5119355;27;20443;-78
2022/03/21 09:55:43;;;;;;;9.02;6.38;;;9.40;33.90;;;;;;5119322;27;20392;-78
2022/03/21 09:58:12;;;;;;;8.95;6.45;;;9.40;34.00;;;;;;5118994;27;20015;-77
2022/03/21 10:00:43;;;;;;;14.25;8.60;;;9.40;33.50;;;;;;5118819;27;20079;-77
2022/03/21 10:03:09;;;;;;;13.70;7.65;;;9.40;33.50;;;;;;5118982;27;20064;-77
2022/03/21 10:05:52;;;;;;;13.43;8.93;;;9.40;33.40;;;;;;5119057;27;20031;-79
2022/03/21 10:08:28;;;;;;;11.73;7.57;;;9.30;33.80;;;;;;5137337;27;20055;-78
2022/03/21 10:10:59;;;;;;;12.15;7.88;;;9.20;33.90;;;;;;5137298;27;20426;-77
2022/03/21 10:13:36;;;;;;;14.05;7.20;;;9.40;34.30;;;;;;5137393;27;20031;-78
2022/03/21 10:16:08;;;;;;;10.48;7.20;;;9.50;34.20;;;;;;5118927;27;20019;-77
2022/03/21 10:18:35;;;;;;;12.02;7.00;;;9.50;34.00;;;;;;5118367;27;20377;-77
2022/03/21 10:21:12;;;;;;;11.40;7.55;;;9.50;33.90;;;;;;5118709;27;20076;-78
2022/03/21 10:23:37;;;;;;;12.20;7.25;;;9.50;33.20;;;;;;5118684;27;20080;-77
2022/03/21 10:26:27;;;;;;;13.57;8.30;;;9.40;33.20;;;;;;5137090;27;20023;-77
2022/03/21 10:28:58;;;;;;;13.02;8.07;;;9.30;33.20;;;;;;5136801;27;20030;-78
2022/03/21 10:31:42;;;;;;;11.30;7.32;;;9.40;33.50;;;;;;5137011;27;20384;-77
2022/03/21 10:34:10;;;;;;;10.60;6.88;;;9.60;32.90;;;;;;5136780;27;20054;-77
2022/03/21 10:37:16;;;;;;;10.02;7.28;;;9.60;32.20;;;;;;5118477;27;20365;-77
2022/03/21 10:39:50;;;;;;;8.15;6.55;;;9.70;32.10;;;;;;5118037;27;20456;-77
2022/03/21 10:42:16;;;;;;;10.80;7.22;;;9.60;32.50;;;;;;5116977;27;20458;-77
2022/03/21 10:44:54;;;;;;;12.00;7.32;;;9.70;33.20;;;;;;5118252;27;20050;-78
2022/03/21 10:47:19;;;;;;;11.88;7.72;;;9.60;32.00;;;;;;5118040;27;20114;-77
2022/03/21 10:49:45;;;;;;;11.55;7.53;;;9.70;32.70;;;;;;5118325;27;20106;-78
2022/03/21 10:52:22;;;;;;;11.15;7.25;;;9.90;32.70;;;;;;5135278;27;20081;-78
2022/03/21 10:54:51;;;;;;;12.35;8.30;;;10.00;32.30;;;;;;5136458;27;20019;-78
2022/03/21 10:57:34;;;;;;;13.20;8.13;;;10.00;31.90;;;;;;5136203;27;20019;-78
2022/03/21 11:00:16;;;;;;;;;;;9.90;32.10;;;;;;5118559;27;20042;-77
2022/03/21 11:03:06;;;;;;;12.52;7.70;;;10.00;32.80;;;;;;5118054;27;19994;-78
2022/03/21 11:05:43;;;;;;;10.82;8.32;;;10.10;32.30;;;;;;5117977;27;20011;-77
2022/03/21 11:08:11;;;;;;;11.70;7.75;;;10.00;32.00;;;;;;5117509;27;20537;-77
2022/03/21 11:10:38;;;;;;;11.15;7.75;;;10.10;32.10;;;;;;5117798;27;20114;-78
2022/03/21 11:13:06;;;;;;;13.45;7.20;;;10.00;31.50;;;;;;5117764;27;20050;-77
2022/03/21 11:15:33;;;;;;;9.77;7.30;;;10.00;31.50;;;;;;5136128;27;20488;-77
2022/03/21 11:17:59;;;;;;;10.45;7.75;;;10.00;31.40;;;;;;5135864;27;20098;-78
2022/03/21 11:20:28;;;;;;;12.80;7.80;;;10.00;31.40;;;;;;5135994;27;20564;-78
2022/03/21 11:22:55;;;;;;;9.93;7.03;;;10.20;31.70;;;;;;5117544;27;20023;-77
2022/03/21 11:25:23;;;;;;;13.00;7.80;;;10.30;31.50;;;;;;5117547;27;20027;-78
2022/03/21 11:28:04;;;;;;;9.60;7.18;;;10.20;31.50;;;;;;5117158;27;20022;-77
2022/03/21 11:30:44;;;;;;;11.50;7.45;;;10.10;31.20;;;;;;5135913;27;20019;-78
2022/03/21 11:33:15;;;;;;;14.60;8.70;;;10.40;31.50;;;;;;5135760;27;20096;-77
2022/03/21 11:35:49;;;;;;;12.23;7.93;;;10.50;31.50;;;;;;5135805;27;20087;-78
2022/03/21 11:38:29;;;;;;;11.15;6.88;;;10.50;31.30;;;;;;5117196;27;20023;-78
2022/03/21 11:41:24;;;;;;;12.45;7.93;;;10.60;30.60;;;;;;5135459;27;20031;-77
2022/03/21 11:44:14;;;;;;;16.42;8.63;;;10.40;30.60;;;;;;5117231;27;20354;-78
2022/03/21 11:46:47;;;;;;;12.80;8.35;;;10.50;31.30;;;;;;5117004;27;20027;-78
2022/03/21 11:49:22;;;;;;;8.90;6.65;;;10.50;31.80;;;;;;5116910;27;20015;-78
2022/03/21 11:52:00;;;;;;;11.13;7.85;;;10.60;30.90;;;;;;5116782;27;20034;-77
2022/03/21 11:54:28;;;;;;;10.05;7.25;;;10.50;30.80;;;;;;5116932;27;20031;-78
2022/03/21 11:57:03;;;;;;;11.38;7.68;;;10.70;31.10;;;;;;5116796;27;20114;-78
2022/03/21 11:59:32;;;;;;;12.35;7.80;;;10.80;31.20;;;;;;5116720;27;20022;-78
2022/03/21 12:02:03;;;;;;;11.93;7.55;;;10.80;30.60;;;;;;5116749;27;20059;-77
2022/03/21 12:04:30;;;;;;;12.38;7.65;;;10.90;30.40;;;;;;5135271;27;20019;-77
2022/03/21 12:07:12;;;;;;;10.40;7.65;;;10.90;30.60;;;;;;5134986;27;20019;-77
2022/03/21 12:09:41;;;;;;;13.00;8.57;;;10.90;30.20;;;;;;5116540;27;20507;-78
2022/03/21 12:12:10;;;;;;;9.27;6.38;;;10.90;30.60;;;;;;5116389;27;20419;-78
2022/03/21 12:14:45;;;;;;;15.23;8.35;;;10.80;30.30;;;;;;5116520;27;20465;-78
2022/03/21 12:17:11;;;;;;;13.32;8.73;;;10.90;30.50;;;;;;5134905;27;20030;-78
2022/03/21 12:19:47;;;;;;;12.32;7.50;;;10.80;30.20;;;;;;5116295;27;20031;-78
2022/03/21 12:22:33;;;;;;;12.25;8.05;;;10.90;30.20;;;;;;5116320;27;20031;-77
2022/03/21 12:25:05;;;;;;;10.57;6.97;;;10.90;30.20;;;;;;5134748;27;20052;-78
2022/03/21 12:27:43;;;;;;;14.27;7.80;;;10.90;30.00;;;;;;5134732;27;20045;-78
2022/03/21 12:30:20;;;;;;;15.05;7.93;;;10.80;30.10;;;;;;5115966;27;20087;-77
2022/03/21 12:32:56;;;;;;;12.88;8.10;;;10.90;30.40;;;;;;5134359;27;20047;-77
2022/03/21 12:35:31;;;;;;;11.18;7.97;;;11.00;30.00;;;;;;5116139;27;20055;-78
2022/03/21 12:38:01;;;;;;;13.27;7.90;;;11.00;29.50;;;;;;5134466;27;20030;-78
2022/03/21 12:40:27;;;;;;;11.27;8.50;;;11.10;29.80;;;;;;5132950;27;20039;-77
2022/03/21 12:42:55;;;;;;;10.70;7.75;;;11.10;29.80;;;;;;5115909;27;20030;-78
2022/03/21 12:45:21;;;;;;;12.70;8.20;;;11.10;29.90;;;;;;5134372;27;20090;-78
2022/03/21 12:47:48;;;;;;;12.40;8.60;;;11.20;30.30;;;;;;5134469;27;20118;-77
2022/03/21 12:50:22;;;;;;;12.15;8.60;;;11.30;30.80;;;;;;5115818;27;20413;-77
2022/03/21 12:53:00;;;;;;;13.40;7.40;;;11.30;30.10;;;;;;5115762;27;20023;-77
2022/03/21 12:55:27;;;;;;;13.23;8.23;;;11.20;29.80;;;;;;5134339;27;20110;-78
2022/03/21 12:57:58;;;;;;;12.10;8.38;;;11.30;29.70;;;;;;5115794;27;20026;-78
2022/03/21 13:00:34;;;;;;;11.43;8.45;;;11.30;29.60;;;;;;5115203;28;20027;-78